Latest Weather Observations for Ernabella/Pukatja

IDD60801

Issued at 6:35 pm CST Tuesday 22 July 2014 (issued every 30 minutes, with the page automatically refreshed every 10 minutes)

About weather observations | Map of weather stations | Latest weather observations for NT | Other Formats
Station Details ID: 016097 Name: PUKATJA Lat: -26.26 Lon: 132.18 Height: 703.2 m
Data from the previous 72 hours. | See also: Recent months at Ernabella/Pukatja
Date/Time
CST
Temp
°C
App
Temp
°C
Dew
Point
Rel
Hum
%
Delta-T
°C
Wind Press
QNH
hPa
Press
MSL
hPa
Rain
since 9 am
mm
Dir
 
Spd
km/h
Gust
km/h
Spd
kts
Gust
kts
22/06:30pm 14.3 9.9 10.3 77 2.2 SW 24 32 13 17 1018.6 - 0.2
22/06:00pm 16.3 12.4 8.5 60 4.1 SW 19 28 10 15 1018.1 1017.6 0.2
22/05:30pm 15.2 10.7 10.0 71 2.8 SW 24 30 13 16 1018.0 - 0.2
22/05:00pm 15.3 9.7 10.1 71 2.8 SW 30 41 16 22 1018.2 - 0.0
22/04:45pm 18.1 12.2 7.5 50 5.6 W 28 44 15 24 1017.9 - 0.0
22/04:30pm 19.8 17.7 6.5 42 6.9 WNW 7 9 4 5 1017.1 - 0.0
22/04:00pm 21.0 17.6 4.1 33 8.5 NW 11 17 6 9 1016.4 - 0.0
22/03:30pm 21.1 18.0 3.8 32 8.6 NNW 9 15 5 8 1016.1 - 0.0
22/03:00pm 21.3 17.0 3.0 30 9.0 N 15 20 8 11 1016.2 1015.7 0.0
22/02:30pm 21.5 16.3 2.7 29 9.2 N 19 26 10 14 1016.4 - 0.0
22/02:00pm 21.8 17.1 3.0 29 9.3 N 17 26 9 14 1016.7 - 0.0
22/01:30pm 21.7 16.4 2.9 29 9.2 N 20 32 11 17 1017.1 - 0.0
22/01:00pm 22.4 17.1 3.0 28 9.6 N 20 33 11 18 1017.6 - 0.0
22/12:30pm 22.7 17.6 2.8 27 9.8 N 19 28 10 15 1018.3 - 0.0
22/12:00pm 22.5 17.2 3.1 28 9.6 NNE 20 32 11 17 1018.9 1018.4 0.0
22/11:30am 22.2 16.9 2.8 28 9.6 NNE 20 32 11 17 1019.6 - 0.0
22/11:00am 21.4 16.6 2.6 29 9.2 N 17 22 9 12 1020.2 - 0.0
22/10:30am 21.2 16.5 3.0 30 8.9 NNE 17 24 9 13 1020.8 - 0.0
22/10:00am 20.0 16.3 2.4 31 8.4 ENE 11 20 6 11 1020.8 - 0.0
22/09:30am 18.1 15.0 1.2 32 7.8 E 7 9 4 5 1021.1 - 0.0
22/09:00am 16.0 13.3 2.8 41 6.2 NE 6 7 3 4 1021.6 1021.1 0.0
22/08:30am 11.9 9.7 3.4 56 3.9 E 4 9 2 5 1021.4 - 0.0
22/08:00am 7.2 5.5 2.1 70 2.2 CALM 0 0 0 0 1021.1 - 0.0
22/07:30am 4.9 3.1 1.0 76 1.6 CALM 0 0 0 0 1021.1 - 0.0
22/07:00am 6.3 4.5 1.2 70 2.1 CALM 0 0 0 0 1020.9 - 0.0
22/06:30am 5.2 3.4 1.3 76 1.6 CALM 0 0 0 0 1021.0 - 0.0
22/06:00am 5.7 4.0 1.6 75 1.7 NE 0 0 0 0 1020.7 1020.2 0.0
22/05:30am 6.2 4.5 1.7 73 1.9 CALM 0 0 0 0 1020.5 - 0.0
22/05:00am 6.7 5.0 2.0 72 2.0 CALM 0 0 0 0 1020.6 - 0.0
22/04:30am 6.9 5.2 1.6 69 2.2 CALM 0 0 0 0 1020.5 - 0.0
22/04:00am 8.1 6.5 2.4 67 2.5 CALM 0 0 0 0 1020.6 - 0.0
22/03:30am 10.1 8.5 2.7 60 3.3 CALM 0 0 0 0 1020.6 - 0.0
22/03:00am 8.5 6.9 2.3 65 2.7 CALM 0 0 0 0 1020.6 1020.1 0.0
22/02:30am 9.6 6.6 2.0 59 3.3 SW 7 9 4 5 1020.7 - 0.0
22/02:00am 8.8 7.1 1.9 62 3.0 CALM 0 0 0 0 1020.8 - 0.0
22/01:30am 8.8 5.9 1.2 59 3.2 SW 6 9 3 5 1020.9 - 0.0
22/01:00am 8.4 5.3 1.6 62 2.9 WSW 7 9 4 5 1020.9 - 0.0
22/12:30am 7.4 5.3 1.5 66 2.5 SW 2 6 1 3 1020.9 - 0.0
22/12:00am 8.4 6.7 1.8 63 2.8 SW 0 0 0 0 1021.2 1020.8 0.0
 
Date/Time
CST
Temp
°C
App
Temp
°C
Dew
Point
Rel
Hum
%
Delta-T
°C
Wind Press
QNH
hPa
Press
MSL
hPa
Rain
since 9 am
mm
Dir
 
Spd
km/h
Gust
km/h
Spd
kts
Gust
kts
21/11:30pm 8.4 6.3 1.6 62 2.9 SW 2 7 1 4 1021.1 - 0.0
21/11:00pm 9.3 6.9 1.9 60 3.2 N 4 6 2 3 1021.3 - 0.0
21/10:30pm 10.2 6.8 2.1 57 3.6 SW 9 9 5 5 1021.2 - 0.0
21/10:00pm 11.2 8.3 1.5 51 4.3 WNW 6 7 3 4 1021.4 - 0.0
21/09:30pm 11.1 8.3 2.2 54 4.0 ENE 6 9 3 5 1021.3 - 0.0
21/09:00pm 11.7 10.0 1.9 51 4.3 CALM 0 0 0 0 1021.4 1021.0 0.0
21/08:30pm 13.6 11.8 0.9 42 5.6 CALM 0 0 0 0 1021.2 - 0.0
21/08:00pm 12.6 9.4 1.0 45 5.1 NNW 7 9 4 5 1021.0 - 0.0
21/07:30pm 14.2 10.6 0.8 40 6.0 SW 9 11 5 6 1020.8 - 0.0
21/07:00pm 16.2 12.7 1.1 36 6.9 SW 9 11 5 6 1020.4 - 0.0
21/06:30pm 17.1 13.9 0.7 33 7.5 WNW 7 7 4 4 1019.7 - 0.0
21/06:00pm 19.4 15.8 0.9 29 8.6 WNW 9 11 5 6 1019.5 1019.0 0.0
21/05:30pm 21.1 16.3 0.3 25 9.7 WNW 15 20 8 11 1019.1 - 0.0
21/05:00pm 21.9 16.3 -0.1 23 10.2 W 19 26 10 14 1018.9 - 0.0
21/04:30pm 21.4 16.7 1.1 26 9.6 WNW 15 28 8 15 1018.7 - 0.0
21/04:00pm 22.5 16.5 0.9 24 10.3 WNW 22 32 12 17 1018.8 - 0.0
21/03:30pm 22.5 16.1 0.9 24 10.3 W 24 35 13 19 1018.8 - 0.0
21/03:00pm 22.5 16.6 1.5 25 10.1 WNW 22 33 12 18 1018.9 1018.4 0.0
21/02:30pm 22.1 16.7 1.2 25 10.0 NW 19 35 10 19 1019.0 - 0.0
21/02:00pm 21.7 16.5 0.3 24 10.0 NW 17 30 9 16 1019.2 - 0.0
21/01:30pm 21.5 15.4 0.1 24 10.0 W 22 28 12 15 1019.5 - 0.0
21/01:00pm 21.5 15.7 0.1 24 10.0 NW 20 30 11 16 1019.9 - 0.0
21/12:30pm 21.5 16.6 -0.5 23 10.1 WNW 15 26 8 14 1020.3 - 0.0
21/12:00pm 21.2 16.0 -0.1 24 9.8 NW 17 26 9 14 1020.5 1020.0 0.0
21/11:30am 20.7 15.8 -0.6 24 9.7 NW 15 24 8 13 1021.0 - 0.0
21/11:00am 19.0 14.9 -0.4 27 8.8 N 11 15 6 8 1021.6 - 0.0
21/10:30am 18.0 14.1 -1.3 27 8.5 N 9 15 5 8 1022.0 - 0.0
21/10:00am 16.3 12.7 -2.2 28 7.9 NNE 7 13 4 7 1022.0 - 0.0
21/09:30am 14.6 10.5 -2.8 30 7.2 NNE 9 11 5 6 1022.0 - 0.0
21/09:00am 13.6 10.1 -3.2 31 6.8 NE 6 9 3 5 1021.8 1021.3 0.0
21/08:30am 12.2 8.6 -2.0 37 5.8 ENE 7 9 4 5 1021.6 - 0.0
21/08:00am 9.7 5.3 -2.6 42 4.8 E 11 13 6 7 1021.4 - 0.0
21/07:30am 8.0 3.6 -2.6 47 4.1 E 11 13 6 7 1021.2 - 0.0
21/07:00am 7.4 3.4 -2.3 50 3.8 E 9 13 5 7 1020.9 - 0.0
21/06:30am 7.8 3.8 -2.2 49 3.9 E 9 11 5 6 1020.7 - 0.0
21/06:00am 7.3 3.3 -2.2 51 3.7 E 9 11 5 6 1020.6 1020.1 0.0
21/05:30am 7.6 3.6 -1.9 51 3.7 E 9 11 5 6 1020.5 - 0.0
21/05:00am 7.6 4.0 -1.9 51 3.7 E 7 9 4 5 1020.5 - 0.0
21/04:30am 8.6 4.7 -1.8 48 4.1 ENE 9 11 5 6 1020.5 - 0.0
21/04:00am 8.1 4.6 -1.7 50 3.9 ENE 7 9 4 5 1020.4 - 0.0
21/03:30am 7.8 3.9 -1.4 52 3.7 ENE 9 13 5 7 1020.4 - 0.0
21/03:00am 8.4 4.1 -1.4 50 3.9 ENE 11 15 6 8 1020.4 1019.9 0.0
21/02:30am 8.4 4.1 -1.4 50 3.9 ENE 11 13 6 7 1020.5 - 0.0
21/02:00am 8.5 4.3 -1.0 51 3.8 E 11 13 6 7 1020.4 - 0.0
21/01:30am 9.4 5.5 -1.3 47 4.3 E 9 11 5 6 1020.5 - 0.0
21/01:00am 9.7 6.2 -1.1 47 4.4 E 7 9 4 5 1020.6 - 0.0
21/12:30am 10.4 6.5 -1.3 44 4.8 E 9 11 5 6 1020.7 - 0.0
21/12:00am 10.6 7.3 -1.1 44 4.8 E 6 7 3 4 1020.7 1020.2 0.0
 
Date/Time
CST
Temp
°C
App
Temp
°C
Dew
Point
Rel
Hum
%
Delta-T
°C
Wind Press
QNH
hPa
Press
MSL
hPa
Rain
since 9 am
mm
Dir
 
Spd
km/h
Gust
km/h
Spd
kts
Gust
kts
20/11:30pm 11.5 8.1 -0.9 42 5.2 E 7 11 4 6 1020.8 - 0.0
20/11:00pm 10.9 7.5 -0.5 45 4.8 NE 7 9 4 5 1020.7 - 0.0
20/10:30pm 10.4 6.6 -0.4 47 4.5 E 9 11 5 6 1020.7 - 0.0
20/10:00pm 10.4 6.7 0.2 49 4.3 ENE 9 11 5 6 1020.5 - 0.0
20/09:30pm 10.6 6.8 -0.5 46 4.6 E 9 11 5 6 1020.5 - 0.0
20/09:00pm 13.6 9.8 -0.8 37 6.1 E 9 11 5 6 1020.6 1020.1 0.0
20/08:30pm 12.7 9.3 -0.5 40 5.6 E 7 9 4 5 1020.5 - 0.0
20/08:00pm 12.3 8.9 -0.9 40 5.6 NNE 7 9 4 5 1020.4 - 0.0
20/07:30pm 12.7 9.3 -0.5 40 5.6 ENE 7 9 4 5 1020.1 - 0.0
20/07:00pm 13.4 11.0 -0.3 39 5.9 NNE 2 6 1 3 1019.7 - 0.0
20/06:30pm 15.4 12.5 -1.2 32 7.1 NNW 4 7 2 4 1019.4 - 0.0
20/06:00pm 16.8 13.5 -0.9 30 7.7 NNW 6 7 3 4 1019.3 1018.8 0.0
20/05:30pm 18.4 14.6 -0.4 28 8.4 NW 9 15 5 8 1019.1 - 0.0
20/05:00pm 18.5 13.6 -0.8 27 8.6 N 15 22 8 12 1018.8 - 0.0
20/04:30pm 18.5 12.8 -0.8 27 8.6 N 19 22 10 12 1018.7 - 0.0
20/04:00pm 18.8 13.9 -0.6 27 8.7 N 15 24 8 13 1018.8 - 0.0
20/03:30pm 19.2 14.6 -0.7 26 8.9 NNW 13 19 7 10 1018.8 - 0.0
20/03:00pm 18.6 13.5 -1.8 25 8.9 N 15 22 8 12 1019.0 1018.5 0.0
20/02:30pm 18.3 12.9 -1.5 26 8.7 NNW 17 24 9 13 1019.2 - 0.0
20/02:00pm 18.2 13.1 -1.6 26 8.7 N 15 26 8 14 1019.3 - 0.0
20/01:30pm 17.2 12.6 -1.4 28 8.1 N 13 22 7 12 1019.6 - 0.0
20/01:00pm 17.0 12.3 -1.6 28 8.1 NNE 13 22 7 12 1020.3 - 0.0
20/12:30pm 15.3 10.9 -2.2 30 7.4 N 11 17 6 9 1021.1 - 0.0
20/12:00pm 14.5 9.7 -2.4 31 7.0 NE 13 20 7 11 1021.4 1021.0 0.0
20/11:30am 13.2 7.6 -3.1 32 6.6 NNE 17 24 9 13 1022.2 - 0.0
20/11:00am 12.7 6.6 -2.7 34 6.2 NNE 20 28 11 15 1022.8 - 0.0
20/10:30am 11.6 6.0 -2.9 36 5.8 NNE 17 24 9 13 1023.4 - 0.0
20/10:00am 11.3 6.0 -3.2 36 5.7 NNE 15 22 8 12 1023.3 - 0.0
20/09:30am 10.0 4.4 -3.0 40 5.1 NNE 17 26 9 14 1023.4 - 0.0
20/09:00am 9.7 4.1 -2.9 41 4.9 N 17 24 9 13 1023.3 1022.9 0.0
20/08:30am 8.8 3.6 -3.1 43 4.6 NNE 15 22 8 12 1023.3 - 0.0
20/08:00am 7.7 2.4 -3.2 46 4.1 NNE 15 24 8 13 1022.9 - 0.0
20/07:30am 7.1 1.5 -3.1 48 3.9 N 17 24 9 13 1022.8 - 0.0
20/07:00am 6.2 1.3 -3.4 50 3.6 NNE 13 19 7 10 1022.7 - 0.0
20/06:30am 7.4 1.4 -3.4 46 4.1 N 19 26 10 14 1022.5 - 0.0
20/06:00am 7.1 2.2 -3.4 47 3.9 N 13 19 7 10 1022.5 1022.1 0.0
20/05:30am 6.8 1.9 -3.1 49 3.7 N 13 15 7 8 1022.2 - 0.0
20/05:00am 7.0 2.5 -3.2 48 3.8 N 11 17 6 9 1022.2 - 0.0
20/04:30am 6.3 2.6 -3.3 50 3.6 N 7 9 4 5 1022.2 - 0.0
20/04:00am 7.2 2.7 -3.1 48 3.9 N 11 15 6 8 1022.6 - 0.0
20/03:30am 5.9 3.6 -2.7 54 3.2 CALM 0 4 0 2 1022.5 - 0.0
20/03:00am 7.0 3.3 -2.7 50 3.7 N 7 11 4 6 1022.7 1022.3 0.0
20/02:30am 6.8 3.4 -0.4 60 2.9 ENE 7 9 4 5 1022.8 - 0.0
20/02:00am 8.6 3.9 -1.8 48 4.1 ENE 13 20 7 11 1022.9 - 0.0
20/01:30am 8.3 4.6 0.1 56 3.4 E 9 11 5 6 1023.6 - 0.0
20/01:00am 8.0 4.8 0.5 59 3.1 E 7 9 4 5 1023.8 - 0.0
20/12:30am 7.3 5.4 0.5 62 2.8 CALM 0 6 0 3 1023.8 - 0.0
20/12:00am 8.0 4.3 -0.2 56 3.3 ENE 9 13 5 7 1023.9 1023.5 0.0
 
Date/Time
CST
Temp
°C
App
Temp
°C
Dew
Point
Rel
Hum
%
Delta-T
°C
Wind Press
QNH
hPa
Press
MSL
hPa
Rain
since 9 am
mm
Dir
 
Spd
km/h
Gust
km/h
Spd
kts
Gust
kts
19/11:30pm 8.4 2.6 0.1 56 3.4 ENE 20 26 11 14 1023.6 - 0.0
19/11:00pm 9.4 5.9 -1.6 46 4.4 E 7 9 4 5 1024.7 - 0.0
19/10:30pm 9.4 6.1 -1.3 47 4.3 E 6 9 3 5 1024.6 - 0.0
19/10:00pm 9.7 5.8 -1.6 45 4.6 NE 9 11 5 6 1024.7 - 0.0
19/09:30pm 9.9 6.3 -1.8 44 4.7 NE 7 13 4 7 1024.4 - 0.0
19/09:00pm 9.6 6.1 -1.7 45 4.5 NNE 7 9 4 5 1024.8 1024.4 0.0
19/08:30pm 10.7 5.9 -2.7 39 5.3 ENE 13 15 7 8 1024.2 - 0.0
19/08:00pm 11.5 6.7 -2.7 37 5.7 ENE 13 17 7 9 1023.8 - 0.0
19/07:30pm 11.6 6.9 -1.9 39 5.5 E 13 17 7 9 1023.2 - 0.0
19/07:00pm 10.9 6.6 -1.8 41 5.2 E 11 13 6 7 1023.1 - 0.0

Other Formats:

Comma delimited format used in spreadsheet applications
http://www.bom.gov.au/fwo/IDD60801/IDD60801.94474.axf

JavaScript Object Notation format (JSON) in row-major order
http://www.bom.gov.au/fwo/IDD60801/IDD60801.94474.json